createdAt,value
2022-12-03T00:02:40.262Z,-2.45
2022-12-03T00:07:44.189Z,-2.46
2022-12-03T00:12:47.726Z,-2.48
2022-12-03T00:17:51.567Z,-2.50
2022-12-03T00:22:55.315Z,-2.55
2022-12-03T00:27:58.943Z,-2.57
2022-12-03T00:33:02.678Z,-2.54
2022-12-03T00:38:06.262Z,-2.51
2022-12-03T00:43:09.873Z,-2.49
2022-12-03T00:48:13.608Z,-2.43
2022-12-03T00:53:19.039Z,-2.41
2022-12-03T00:58:24.924Z,-2.49
2022-12-03T01:03:29.329Z,-2.50
2022-12-03T01:08:33.886Z,-2.43
2022-12-03T01:13:38.013Z,-2.45
2022-12-03T01:18:42.204Z,-2.50
2022-12-03T01:23:46.783Z,-2.48
2022-12-03T01:28:51.090Z,-2.46
2022-12-03T01:33:56.652Z,-2.47
2022-12-03T01:39:01.895Z,-2.42
2022-12-03T01:44:16.381Z,-2.38
2022-12-03T01:49:26.546Z,-2.39
2022-12-03T01:54:42.515Z,-2.33
2022-12-03T01:59:48.148Z,-2.31
2022-12-03T02:04:56.116Z,-2.31
2022-12-03T02:10:02.414Z,-2.27
2022-12-03T02:15:07.515Z,-2.24
2022-12-03T02:20:13.537Z,-2.27
2022-12-03T02:25:28.743Z,-2.27
2022-12-03T02:30:33.753Z,-2.24
2022-12-03T02:35:39.387Z,-2.22
2022-12-03T02:40:45.973Z,-2.24
2022-12-03T02:45:57.308Z,-2.19
2022-12-03T02:51:06.297Z,-2.16
2022-12-03T02:56:14.890Z,-2.16
2022-12-03T03:01:19.684Z,-2.17
2022-12-03T03:06:25.827Z,-2.15
2022-12-03T03:11:29.520Z,-2.12
2022-12-03T03:16:35.419Z,-2.13
2022-12-03T03:21:40.609Z,-2.14
2022-12-03T03:26:44.568Z,-2.11
2022-12-03T03:31:49.415Z,-2.11
2022-12-03T03:36:55.010Z,-2.10
2022-12-03T03:41:59.819Z,-2.04
2022-12-03T03:47:04.741Z,-2.00
2022-12-03T03:52:12.376Z,-1.97
2022-12-03T03:57:18.341Z,-1.92
2022-12-03T04:02:26.232Z,-1.93
2022-12-03T04:07:30.769Z,-1.93
2022-12-03T04:12:58.687Z,-1.89
2022-12-03T04:18:22.631Z,-1.87
2022-12-03T04:23:30.883Z,-1.93
2022-12-03T04:28:52.544Z,-1.92
2022-12-03T04:34:15.146Z,-1.89
2022-12-03T04:39:20.300Z,-1.88
2022-12-03T04:44:36.641Z,-1.89
2022-12-03T04:49:45.408Z,-1.88
2022-12-03T04:54:50.414Z,-1.81
2022-12-03T04:59:54.869Z,-1.78
2022-12-03T05:04:59.799Z,-1.77
2022-12-03T05:10:05.353Z,-1.74
2022-12-03T05:15:09.302Z,-1.73
2022-12-03T05:20:33.575Z,-1.74
2022-12-03T05:25:39.246Z,-1.77
2022-12-03T05:30:43.439Z,-1.76
2022-12-03T05:40:43.530Z,-1.74
2022-12-03T05:45:48.596Z,-1.65
2022-12-03T05:50:53.410Z,-1.58
2022-12-03T05:55:58.861Z,-1.56
2022-12-03T06:01:03.845Z,-1.56
2022-12-03T06:06:08.741Z,-1.53
2022-12-03T06:11:14.441Z,-1.52
2022-12-03T06:16:19.442Z,-1.52
2022-12-03T06:21:25.576Z,-1.53
2022-12-03T06:26:33.712Z,-1.52
2022-12-03T06:31:38.342Z,-1.50
2022-12-03T06:36:42.722Z,-1.49
2022-12-03T06:41:47.754Z,-1.51
2022-12-03T06:46:52.348Z,-1.50
2022-12-03T06:51:57.313Z,-1.47
2022-12-03T06:57:01.602Z,-1.44
2022-12-03T07:02:07.289Z,-1.47
2022-12-03T07:07:12.596Z,-1.48
2022-12-03T07:12:17.218Z,-1.43
2022-12-03T07:17:22.597Z,-1.42
2022-12-03T07:22:28.351Z,-1.41
2022-12-03T07:27:33.718Z,-1.37
2022-12-03T07:32:37.147Z,-1.31
2022-12-03T07:37:40.240Z,-1.28
2022-12-03T07:42:44.556Z,-1.18
2022-12-03T07:47:48.414Z,-1.03
2022-12-03T07:52:51.678Z,-0.88
2022-12-03T07:57:55.902Z,-0.73
2022-12-03T08:03:00.505Z,-0.59
2022-12-03T08:08:04.447Z,-0.45
2022-12-03T08:13:16.367Z,-0.42
2022-12-03T08:18:22.418Z,-0.33
2022-12-03T08:23:26.938Z,-0.20
2022-12-03T08:28:32.504Z,-0.08
2022-12-03T08:33:38.303Z,-0.01
2022-12-03T08:38:55.250Z,0.17
2022-12-03T08:43:59.264Z,0.33
2022-12-03T08:49:17.628Z,0.44
2022-12-03T08:54:21.494Z,0.54
2022-12-03T08:59:33.556Z,0.59
2022-12-03T09:04:47.044Z,0.68
2022-12-03T09:09:51.497Z,0.73
2022-12-03T09:14:56.344Z,0.79
2022-12-03T09:20:00.239Z,0.85
2022-12-03T09:25:04.440Z,0.87
2022-12-03T09:30:08.735Z,0.94
2022-12-03T09:35:13.285Z,1.14
2022-12-03T09:40:17.229Z,1.31
2022-12-03T09:45:21.387Z,1.39
2022-12-03T09:50:28.041Z,1.53
2022-12-03T09:55:32.802Z,1.64
2022-12-03T10:00:37.633Z,1.67
2022-12-03T10:05:47.803Z,1.70
2022-12-03T10:10:58.011Z,1.75
2022-12-03T10:16:03.523Z,1.62
2022-12-03T10:21:27.243Z,1.59
2022-12-03T10:26:42.408Z,1.62
2022-12-03T10:31:56.217Z,1.72
2022-12-03T10:37:17.135Z,1.86
2022-12-03T10:42:22.956Z,1.94
2022-12-03T10:47:29.464Z,2.17
2022-12-03T10:52:35.182Z,2.22
2022-12-03T10:57:45.319Z,2.04
2022-12-03T11:02:56.812Z,1.83
2022-12-03T11:08:03.289Z,1.64
2022-12-03T11:13:34.937Z,1.58
2022-12-03T11:18:40.090Z,1.50
2022-12-03T11:23:44.802Z,1.28
2022-12-03T11:28:55.301Z,1.23
2022-12-03T11:39:53.285Z,1.05
2022-12-03T11:50:45.155Z,0.77
2022-12-03T12:01:38.902Z,0.53
2022-12-03T12:06:50.226Z,0.57
2022-12-03T12:12:38.707Z,0.62
2022-12-03T12:17:44.058Z,0.73
2022-12-03T12:22:48.879Z,0.76
2022-12-03T12:33:39.851Z,0.61
2022-12-03T12:38:44.304Z,0.54
2022-12-03T12:43:49.549Z,0.43
2022-12-03T12:48:59.579Z,0.31
2022-12-03T12:54:12.487Z,0.23
2022-12-03T12:59:21.924Z,0.17
2022-12-03T13:09:56.854Z,0.04
2022-12-03T13:26:13.155Z,0.03
2022-12-03T13:37:26.587Z,-0.07
2022-12-03T13:42:42.480Z,-0.11
2022-12-03T13:47:50.968Z,-0.05
2022-12-03T13:58:13.745Z,-0.15
2022-12-03T14:03:18.631Z,-0.20
2022-12-03T14:08:24.147Z,-0.19
2022-12-03T14:13:32.465Z,-0.08
2022-12-03T14:18:55.550Z,-0.05
2022-12-03T14:24:00.514Z,-0.06
2022-12-03T14:29:08.749Z,-0.07
2022-12-03T14:34:14.452Z,-0.15
2022-12-03T14:39:25.429Z,-0.19
2022-12-03T14:44:29.762Z,-0.10
2022-12-03T14:49:35.649Z,-0.01
2022-12-03T14:54:43.049Z,0.10
2022-12-03T14:59:47.609Z,0.17
2022-12-03T15:04:52.134Z,0.21
2022-12-03T15:09:56.489Z,0.27
2022-12-03T15:15:01.186Z,0.32
2022-12-03T15:20:09.192Z,0.43
2022-12-03T15:25:13.952Z,0.44
2022-12-03T15:30:18.963Z,0.40
2022-12-03T15:35:32.276Z,0.34
2022-12-03T15:40:45.267Z,0.41
2022-12-03T15:45:50.047Z,0.41
2022-12-03T15:50:54.701Z,0.34
2022-12-03T15:55:58.593Z,0.30
2022-12-03T16:01:02.711Z,0.23
2022-12-03T16:11:46.665Z,0.18
2022-12-03T16:22:17.443Z,0.09
2022-12-03T16:27:27.022Z,0.03
2022-12-03T16:48:49.149Z,-0.03
2022-12-03T16:53:55.622Z,-0.07
2022-12-03T16:59:00.210Z,-0.04
2022-12-03T17:04:04.652Z,-0.04
2022-12-03T17:09:09.137Z,0.02
2022-12-03T17:14:13.461Z,0.02
2022-12-03T17:19:18.103Z,0.07
2022-12-03T17:24:22.922Z,0.07
2022-12-03T17:29:28.365Z,0.03
2022-12-03T17:34:32.436Z,0.00
2022-12-03T17:39:37.450Z,-0.02
2022-12-03T17:44:41.565Z,0.05
2022-12-03T17:49:48.133Z,0.10
2022-12-03T17:55:10.802Z,0.12
2022-12-03T18:00:17.534Z,0.08
2022-12-03T18:05:23.351Z,0.06
2022-12-03T18:10:27.833Z,-0.02
2022-12-03T18:15:33.582Z,-0.04
2022-12-03T18:20:38.655Z,-0.02
2022-12-03T18:25:43.586Z,0.02
2022-12-03T18:30:52.444Z,0.00
2022-12-03T18:35:59.094Z,-0.01
2022-12-03T18:41:05.900Z,0.04
2022-12-03T18:46:51.313Z,0.07
2022-12-03T18:51:40.789Z,0.08
2022-12-03T18:56:45.005Z,0.10
2022-12-03T19:01:52.764Z,0.15
2022-12-03T19:06:58.510Z,0.17
2022-12-03T19:12:03.437Z,0.16
2022-12-03T19:17:10.173Z,0.22
2022-12-03T19:22:15.478Z,0.22
2022-12-03T19:27:20.201Z,0.27
2022-12-03T19:32:25.447Z,0.28
2022-12-03T19:37:34.428Z,0.26
2022-12-03T19:42:39.591Z,0.24
2022-12-03T19:47:43.919Z,0.30
2022-12-03T19:52:47.707Z,0.32
2022-12-03T19:57:51.185Z,0.40
2022-12-03T20:02:56.058Z,0.54
2022-12-03T20:08:01.064Z,0.64
2022-12-03T20:13:07.352Z,0.58
2022-12-03T20:18:12.577Z,0.55
2022-12-03T20:23:17.457Z,0.51
2022-12-03T20:28:25.042Z,0.51
2022-12-03T20:33:30.144Z,0.47
2022-12-03T20:38:34.922Z,0.48
2022-12-03T20:43:41.970Z,0.51
2022-12-03T20:48:48.381Z,0.63
2022-12-03T20:53:54.325Z,0.76
2022-12-03T20:59:09.392Z,0.83
2022-12-03T21:04:17.209Z,0.80
2022-12-03T21:09:22.807Z,0.87
2022-12-03T21:14:28.578Z,0.95
2022-12-03T21:19:33.382Z,0.98
2022-12-03T21:24:38.414Z,1.05
2022-12-03T21:29:43.306Z,1.12
2022-12-03T21:34:47.724Z,1.10
2022-12-03T21:39:51.548Z,1.12
2022-12-03T21:44:55.926Z,1.19
2022-12-03T21:49:59.353Z,1.34
2022-12-03T21:55:03.205Z,1.42
2022-12-03T22:00:09.881Z,1.42
2022-12-03T22:05:14.607Z,1.45
2022-12-03T22:10:18.730Z,1.55
2022-12-03T22:15:22.218Z,1.59
2022-12-03T22:20:25.757Z,1.60
2022-12-03T22:25:30.925Z,1.64
2022-12-03T22:30:34.817Z,1.71
2022-12-03T22:35:39.132Z,1.66
2022-12-03T22:40:42.886Z,1.57
2022-12-03T22:45:46.552Z,1.49
2022-12-03T22:50:51.777Z,1.41
2022-12-03T22:55:58.606Z,1.39
2022-12-03T23:01:03.171Z,1.43
2022-12-03T23:06:12.246Z,1.43
2022-12-03T23:11:16.930Z,1.37
2022-12-03T23:16:26.692Z,1.42
2022-12-03T23:21:33.494Z,1.44
2022-12-03T23:26:39.726Z,1.47
2022-12-03T23:31:43.518Z,1.52
2022-12-03T23:36:47.064Z,1.46
2022-12-03T23:41:52.405Z,1.43
2022-12-03T23:46:55.908Z,1.43
2022-12-03T23:52:00.827Z,1.36
2022-12-03T23:57:05.215Z,1.35
